sensor_id;sensor_type;location;lat;lon;timestamp;P1;durP1;ratioP1;P2;durP2;ratioP2
7985;SDS011;4038;42.612;23.066;2023-10-09T00:01:49;22.65;;;20.95;;
7985;SDS011;4038;42.612;23.066;2023-10-09T00:04:16;23.10;;;21.23;;
7985;SDS011;4038;42.612;23.066;2023-10-09T00:06:42;23.40;;;21.73;;
7985;SDS011;4038;42.612;23.066;2023-10-09T00:09:08;23.08;;;21.42;;
7985;SDS011;4038;42.612;23.066;2023-10-09T00:11:43;23.52;;;21.75;;
7985;SDS011;4038;42.612;23.066;2023-10-09T00:14:10;23.10;;;21.10;;
7985;SDS011;4038;42.612;23.066;2023-10-09T00:16:40;23.80;;;21.67;;
7985;SDS011;4038;42.612;23.066;2023-10-09T00:19:13;23.10;;;21.25;;
7985;SDS011;4038;42.612;23.066;2023-10-09T00:21:40;21.73;;;20.30;;
7985;SDS011;4038;42.612;23.066;2023-10-09T00:24:06;21.95;;;20.33;;
7985;SDS011;4038;42.612;23.066;2023-10-09T00:26:38;22.65;;;20.88;;
7985;SDS011;4038;42.612;23.066;2023-10-09T00:29:11;22.48;;;21.08;;
7985;SDS011;4038;42.612;23.066;2023-10-09T00:31:41;22.10;;;20.40;;
7985;SDS011;4038;42.612;23.066;2023-10-09T00:34:15;23.58;;;21.67;;
7985;SDS011;4038;42.612;23.066;2023-10-09T00:36:47;22.98;;;21.10;;
7985;SDS011;4038;42.612;23.066;2023-10-09T00:39:16;22.30;;;20.60;;
7985;SDS011;4038;42.612;23.066;2023-10-09T00:42:03;23.20;;;21.40;;
7985;SDS011;4038;42.612;23.066;2023-10-09T00:44:31;23.05;;;21.33;;
7985;SDS011;4038;42.612;23.066;2023-10-09T00:47:07;23.00;;;21.35;;
7985;SDS011;4038;42.612;23.066;2023-10-09T00:49:54;21.83;;;20.42;;
7985;SDS011;4038;42.612;23.066;2023-10-09T00:52:30;21.83;;;20.42;;
7985;SDS011;4038;42.612;23.066;2023-10-09T00:55:18;22.77;;;21.27;;
7985;SDS011;4038;42.612;23.066;2023-10-09T00:58:04;23.35;;;21.65;;
7985;SDS011;4038;42.612;23.066;2023-10-09T01:00:37;21.90;;;20.20;;
7985;SDS011;4038;42.612;23.066;2023-10-09T01:03:08;23.15;;;21.25;;
7985;SDS011;4038;42.612;23.066;2023-10-09T01:06:04;22.13;;;20.73;;
7985;SDS011;4038;42.612;23.066;2023-10-09T01:08:35;22.10;;;20.50;;
7985;SDS011;4038;42.612;23.066;2023-10-09T01:11:18;21.90;;;20.40;;
7985;SDS011;4038;42.612;23.066;2023-10-09T01:13:44;22.70;;;21.10;;
7985;SDS011;4038;42.612;23.066;2023-10-09T01:16:17;22.67;;;21.13;;
7985;SDS011;4038;42.612;23.066;2023-10-09T01:18:48;22.45;;;20.88;;
7985;SDS011;4038;42.612;23.066;2023-10-09T01:21:18;22.05;;;20.45;;
7985;SDS011;4038;42.612;23.066;2023-10-09T01:23:52;22.02;;;20.27;;
7985;SDS011;4038;42.612;23.066;2023-10-09T01:26:34;22.90;;;21.30;;
7985;SDS011;4038;42.612;23.066;2023-10-09T01:29:07;22.30;;;20.75;;
7985;SDS011;4038;42.612;23.066;2023-10-09T01:31:49;22.15;;;20.40;;
7985;SDS011;4038;42.612;23.066;2023-10-09T01:34:16;22.33;;;20.38;;
7985;SDS011;4038;42.612;23.066;2023-10-09T01:36:42;20.90;;;19.60;;
7985;SDS011;4038;42.612;23.066;2023-10-09T01:39:07;22.20;;;20.55;;
7985;SDS011;4038;42.612;23.066;2023-10-09T01:41:55;22.10;;;20.60;;
7985;SDS011;4038;42.612;23.066;2023-10-09T01:44:27;21.98;;;20.50;;
7985;SDS011;4038;42.612;23.066;2023-10-09T01:47:02;22.60;;;20.63;;
7985;SDS011;4038;42.612;23.066;2023-10-09T01:49:42;22.17;;;20.73;;
7985;SDS011;4038;42.612;23.066;2023-10-09T01:52:08;22.35;;;20.92;;
7985;SDS011;4038;42.612;23.066;2023-10-09T01:54:37;23.10;;;21.52;;
7985;SDS011;4038;42.612;23.066;2023-10-09T01:57:04;21.98;;;20.58;;
7985;SDS011;4038;42.612;23.066;2023-10-09T01:59:36;22.10;;;20.55;;
7985;SDS011;4038;42.612;23.066;2023-10-09T02:02:06;22.13;;;20.63;;
7985;SDS011;4038;42.612;23.066;2023-10-09T02:04:51;22.52;;;20.80;;
7985;SDS011;4038;42.612;23.066;2023-10-09T02:07:30;22.58;;;20.70;;
7985;SDS011;4038;42.612;23.066;2023-10-09T02:10:05;22.40;;;20.70;;
7985;SDS011;4038;42.612;23.066;2023-10-09T02:12:36;22.52;;;20.63;;
7985;SDS011;4038;42.612;23.066;2023-10-09T02:15:02;22.00;;;20.40;;
7985;SDS011;4038;42.612;23.066;2023-10-09T02:17:40;22.58;;;20.88;;
7985;SDS011;4038;42.612;23.066;2023-10-09T02:20:17;22.98;;;20.98;;
7985;SDS011;4038;42.612;23.066;2023-10-09T02:22:44;22.52;;;20.83;;
7985;SDS011;4038;42.612;23.066;2023-10-09T02:25:09;22.20;;;20.70;;
7985;SDS011;4038;42.612;23.066;2023-10-09T02:27:36;21.30;;;19.83;;
7985;SDS011;4038;42.612;23.066;2023-10-09T02:30:10;21.70;;;20.13;;
7985;SDS011;4038;42.612;23.066;2023-10-09T02:32:51;21.73;;;20.08;;
7985;SDS011;4038;42.612;23.066;2023-10-09T02:35:18;21.98;;;20.15;;
7985;SDS011;4038;42.612;23.066;2023-10-09T02:37:46;21.63;;;19.98;;
7985;SDS011;4038;42.612;23.066;2023-10-09T02:40:12;22.35;;;20.48;;
7985;SDS011;4038;42.612;23.066;2023-10-09T02:42:47;21.67;;;20.27;;
7985;SDS011;4038;42.612;23.066;2023-10-09T02:45:14;21.63;;;19.92;;
7985;SDS011;4038;42.612;23.066;2023-10-09T02:47:41;21.95;;;20.45;;
7985;SDS011;4038;42.612;23.066;2023-10-09T02:50:08;22.00;;;20.25;;
7985;SDS011;4038;42.612;23.066;2023-10-09T02:52:45;22.23;;;20.73;;
7985;SDS011;4038;42.612;23.066;2023-10-09T02:55:12;21.98;;;20.25;;
7985;SDS011;4038;42.612;23.066;2023-10-09T02:57:56;21.92;;;20.38;;
7985;SDS011;4038;42.612;23.066;2023-10-09T03:00:31;21.42;;;19.92;;
7985;SDS011;4038;42.612;23.066;2023-10-09T03:02:57;22.70;;;20.75;;
7985;SDS011;4038;42.612;23.066;2023-10-09T03:05:24;21.77;;;20.27;;
7985;SDS011;4038;42.612;23.066;2023-10-09T03:07:50;22.13;;;20.60;;
7985;SDS011;4038;42.612;23.066;2023-10-09T03:10:17;22.23;;;20.50;;
7985;SDS011;4038;42.612;23.066;2023-10-09T03:12:42;21.70;;;20.20;;
7985;SDS011;4038;42.612;23.066;2023-10-09T03:15:08;22.35;;;20.75;;
7985;SDS011;4038;42.612;23.066;2023-10-09T03:17:34;21.83;;;20.27;;
7985;SDS011;4038;42.612;23.066;2023-10-09T03:20:06;21.65;;;19.88;;
7985;SDS011;4038;42.612;23.066;2023-10-09T03:22:39;22.55;;;20.38;;
7985;SDS011;4038;42.612;23.066;2023-10-09T03:25:05;21.52;;;19.98;;
7985;SDS011;4038;42.612;23.066;2023-10-09T03:27:36;22.33;;;20.73;;
7985;SDS011;4038;42.612;23.066;2023-10-09T03:30:03;22.05;;;20.35;;
7985;SDS011;4038;42.612;23.066;2023-10-09T03:32:30;21.67;;;20.08;;
7985;SDS011;4038;42.612;23.066;2023-10-09T03:34:55;21.92;;;20.33;;
7985;SDS011;4038;42.612;23.066;2023-10-09T03:37:21;21.63;;;20.15;;
7985;SDS011;4038;42.612;23.066;2023-10-09T03:39:59;21.85;;;20.15;;
7985;SDS011;4038;42.612;23.066;2023-10-09T03:42:25;21.27;;;19.73;;
7985;SDS011;4038;42.612;23.066;2023-10-09T03:44:50;21.48;;;19.90;;
7985;SDS011;4038;42.612;23.066;2023-10-09T03:47:19;20.20;;;18.90;;
7985;SDS011;4038;42.612;23.066;2023-10-09T03:49:50;21.05;;;19.45;;
7985;SDS011;4038;42.612;23.066;2023-10-09T03:52:17;20.70;;;19.20;;
7985;SDS011;4038;42.612;23.066;2023-10-09T03:54:43;21.10;;;19.50;;
7985;SDS011;4038;42.612;23.066;2023-10-09T03:57:12;21.23;;;19.83;;
7985;SDS011;4038;42.612;23.066;2023-10-09T03:59:45;21.85;;;20.30;;
7985;SDS011;4038;42.612;23.066;2023-10-09T04:02:12;21.42;;;19.95;;
7985;SDS011;4038;42.612;23.066;2023-10-09T04:04:38;21.50;;;19.90;;
7985;SDS011;4038;42.612;23.066;2023-10-09T04:07:03;21.10;;;19.70;;
7985;SDS011;4038;42.612;23.066;2023-10-09T04:09:31;21.92;;;20.50;;
7985;SDS011;4038;42.612;23.066;2023-10-09T04:12:04;20.77;;;19.38;;
7985;SDS011;4038;42.612;23.066;2023-10-09T04:14:39;21.58;;;20.08;;
7985;SDS011;4038;42.612;23.066;2023-10-09T04:17:23;21.42;;;19.90;;
7985;SDS011;4038;42.612;23.066;2023-10-09T04:19:54;22.20;;;20.45;;
7985;SDS011;4038;42.612;23.066;2023-10-09T04:22:39;27.58;;;19.98;;
7985;SDS011;4038;42.612;23.066;2023-10-09T04:25:07;22.42;;;20.88;;
7985;SDS011;4038;42.612;23.066;2023-10-09T04:27:43;21.40;;;20.00;;
7985;SDS011;4038;42.612;23.066;2023-10-09T04:30:10;23.98;;;21.77;;
7985;SDS011;4038;42.612;23.066;2023-10-09T04:32:40;22.52;;;20.25;;
7985;SDS011;4038;42.612;23.066;2023-10-09T04:35:09;21.23;;;19.83;;
7985;SDS011;4038;42.612;23.066;2023-10-09T04:37:44;21.70;;;20.20;;
7985;SDS011;4038;42.612;23.066;2023-10-09T04:40:17;22.75;;;20.92;;
7985;SDS011;4038;42.612;23.066;2023-10-09T04:43:02;22.38;;;20.77;;
7985;SDS011;4038;42.612;23.066;2023-10-09T04:45:37;22.90;;;21.20;;
7985;SDS011;4038;42.612;23.066;2023-10-09T04:48:09;22.77;;;21.15;;
7985;SDS011;4038;42.612;23.066;2023-10-09T04:50:35;21.80;;;20.10;;
7985;SDS011;4038;42.612;23.066;2023-10-09T04:53:11;21.85;;;20.27;;
7985;SDS011;4038;42.612;23.066;2023-10-09T04:55:44;23.00;;;21.30;;
7985;SDS011;4038;42.612;23.066;2023-10-09T04:58:19;22.63;;;20.67;;
7985;SDS011;4038;42.612;23.066;2023-10-09T05:00:54;22.45;;;20.75;;
7985;SDS011;4038;42.612;23.066;2023-10-09T05:03:37;23.92;;;21.67;;
7985;SDS011;4038;42.612;23.066;2023-10-09T05:06:05;22.98;;;20.80;;
7985;SDS011;4038;42.612;23.066;2023-10-09T05:08:49;21.70;;;20.20;;
7985;SDS011;4038;42.612;23.066;2023-10-09T05:11:14;22.63;;;20.58;;
7985;SDS011;4038;42.612;23.066;2023-10-09T05:14:00;22.85;;;21.15;;
7985;SDS011;4038;42.612;23.066;2023-10-09T05:16:38;22.02;;;20.05;;
7985;SDS011;4038;42.612;23.066;2023-10-09T05:19:22;22.80;;;20.90;;
7985;SDS011;4038;42.612;23.066;2023-10-09T05:22:07;23.05;;;21.40;;
7985;SDS011;4038;42.612;23.066;2023-10-09T05:24:34;23.23;;;21.08;;
7985;SDS011;4038;42.612;23.066;2023-10-09T05:27:10;23.15;;;20.92;;
7985;SDS011;4038;42.612;23.066;2023-10-09T05:29:58;23.27;;;21.35;;
7985;SDS011;4038;42.612;23.066;2023-10-09T05:32:37;23.05;;;21.02;;
7985;SDS011;4038;42.612;23.066;2023-10-09T05:35:13;23.35;;;21.75;;
7985;SDS011;4038;42.612;23.066;2023-10-09T05:37:41;25.02;;;23.10;;
7985;SDS011;4038;42.612;23.066;2023-10-09T05:40:12;25.48;;;23.17;;
7985;SDS011;4038;42.612;23.066;2023-10-09T05:42:41;26.65;;;24.23;;
7985;SDS011;4038;42.612;23.066;2023-10-09T05:45:07;23.55;;;21.55;;
7985;SDS011;4038;42.612;23.066;2023-10-09T05:47:52;24.58;;;22.05;;
7985;SDS011;4038;42.612;23.066;2023-10-09T05:50:26;50.72;;;22.75;;
7985;SDS011;4038;42.612;23.066;2023-10-09T05:52:52;46.05;;;24.70;;
7985;SDS011;4038;42.612;23.066;2023-10-09T05:55:20;31.08;;;23.27;;
7985;SDS011;4038;42.612;23.066;2023-10-09T05:57:49;31.42;;;23.23;;
7985;SDS011;4038;42.612;23.066;2023-10-09T06:00:24;32.45;;;22.70;;
7985;SDS011;4038;42.612;23.066;2023-10-09T06:03:09;31.48;;;22.88;;
7985;SDS011;4038;42.612;23.066;2023-10-09T06:05:50;29.92;;;23.58;;
7985;SDS011;4038;42.612;23.066;2023-10-09T06:08:26;28.20;;;24.05;;
7985;SDS011;4038;42.612;23.066;2023-10-09T06:11:04;27.25;;;23.08;;
7985;SDS011;4038;42.612;23.066;2023-10-09T06:13:48;24.45;;;21.63;;
7985;SDS011;4038;42.612;23.066;2023-10-09T06:16:23;23.77;;;21.75;;
7985;SDS011;4038;42.612;23.066;2023-10-09T06:19:09;22.98;;;21.38;;
7985;SDS011;4038;42.612;23.066;2023-10-09T06:21:45;21.55;;;20.13;;
7985;SDS011;4038;42.612;23.066;2023-10-09T06:24:20;21.98;;;20.38;;
7985;SDS011;4038;42.612;23.066;2023-10-09T06:26:49;21.90;;;20.50;;
7985;SDS011;4038;42.612;23.066;2023-10-09T06:29:24;22.10;;;20.38;;
7985;SDS011;4038;42.612;23.066;2023-10-09T06:32:03;21.10;;;19.70;;
7985;SDS011;4038;42.612;23.066;2023-10-09T06:34:48;21.77;;;20.17;;
7985;SDS011;4038;42.612;23.066;2023-10-09T06:37:19;21.55;;;20.15;;
7985;SDS011;4038;42.612;23.066;2023-10-09T06:39:51;22.02;;;20.63;;
7985;SDS011;4038;42.612;23.066;2023-10-09T06:42:21;22.30;;;20.73;;
7985;SDS011;4038;42.612;23.066;2023-10-09T06:47:39;21.90;;;20.40;;
7985;SDS011;4038;42.612;23.066;2023-10-09T06:50:18;21.50;;;20.08;;
7985;SDS011;4038;42.612;23.066;2023-10-09T06:52:47;21.40;;;20.00;;
7985;SDS011;4038;42.612;23.066;2023-10-09T06:55:25;21.13;;;19.73;;
7985;SDS011;4038;42.612;23.066;2023-10-09T06:58:02;21.25;;;19.85;;
7985;SDS011;4038;42.612;23.066;2023-10-09T07:00:40;21.63;;;20.17;;
7985;SDS011;4038;42.612;23.066;2023-10-09T07:03:24;22.08;;;20.42;;
7985;SDS011;4038;42.612;23.066;2023-10-09T07:06:10;22.25;;;20.75;;
7985;SDS011;4038;42.612;23.066;2023-10-09T07:08:55;22.30;;;20.40;;
7985;SDS011;4038;42.612;23.066;2023-10-09T07:11:37;22.70;;;21.02;;
7985;SDS011;4038;42.612;23.066;2023-10-09T07:14:13;21.83;;;20.27;;
7985;SDS011;4038;42.612;23.066;2023-10-09T07:17:04;21.70;;;20.35;;
7985;SDS011;4038;42.612;23.066;2023-10-09T07:19:50;22.23;;;20.70;;
7985;SDS011;4038;42.612;23.066;2023-10-09T07:22:16;22.25;;;20.85;;
7985;SDS011;4038;42.612;23.066;2023-10-09T07:24:46;21.70;;;20.30;;
7985;SDS011;4038;42.612;23.066;2023-10-09T07:27:18;21.05;;;19.65;;
7985;SDS011;4038;42.612;23.066;2023-10-09T07:30:05;21.00;;;19.60;;
7985;SDS011;4038;42.612;23.066;2023-10-09T07:32:52;20.70;;;19.30;;
7985;SDS011;4038;42.612;23.066;2023-10-09T07:35:20;20.85;;;19.35;;
7985;SDS011;4038;42.612;23.066;2023-10-09T07:38:06;20.77;;;19.30;;
7985;SDS011;4038;42.612;23.066;2023-10-09T07:40:41;20.85;;;19.45;;
7985;SDS011;4038;42.612;23.066;2023-10-09T07:43:45;20.70;;;19.10;;
7985;SDS011;4038;42.612;23.066;2023-10-09T07:46:17;21.63;;;19.95;;
7985;SDS011;4038;42.612;23.066;2023-10-09T07:48:59;20.33;;;18.92;;
7985;SDS011;4038;42.612;23.066;2023-10-09T07:51:37;20.73;;;19.15;;
7985;SDS011;4038;42.612;23.066;2023-10-09T07:54:09;21.13;;;19.38;;
7985;SDS011;4038;42.612;23.066;2023-10-09T07:56:38;19.75;;;18.45;;
7985;SDS011;4038;42.612;23.066;2023-10-09T07:59:08;20.13;;;18.83;;
7985;SDS011;4038;42.612;23.066;2023-10-09T08:01:40;20.92;;;19.48;;
7985;SDS011;4038;42.612;23.066;2023-10-09T08:04:27;20.52;;;19.20;;
7985;SDS011;4038;42.612;23.066;2023-10-09T08:07:13;21.33;;;19.83;;
7985;SDS011;4038;42.612;23.066;2023-10-09T08:10:06;20.45;;;19.02;;
7985;SDS011;4038;42.612;23.066;2023-10-09T08:12:38;20.77;;;19.38;;
7985;SDS011;4038;42.612;23.066;2023-10-09T08:15:22;20.60;;;19.20;;
7985;SDS011;4038;42.612;23.066;2023-10-09T08:17:56;20.70;;;19.38;;
7985;SDS011;4038;42.612;23.066;2023-10-09T08:20:29;22.83;;;20.70;;
7985;SDS011;4038;42.612;23.066;2023-10-09T08:23:14;22.35;;;20.83;;
7985;SDS011;4038;42.612;23.066;2023-10-09T08:25:47;21.15;;;19.75;;
7985;SDS011;4038;42.612;23.066;2023-10-09T08:28:32;21.48;;;20.08;;
7985;SDS011;4038;42.612;23.066;2023-10-09T08:31:13;21.48;;;20.08;;
7985;SDS011;4038;42.612;23.066;2023-10-09T08:34:02;21.70;;;20.35;;
7985;SDS011;4038;42.612;23.066;2023-10-09T08:36:29;21.98;;;20.48;;
7985;SDS011;4038;42.612;23.066;2023-10-09T08:39:01;21.13;;;19.83;;
7985;SDS011;4038;42.612;23.066;2023-10-09T08:41:39;21.55;;;20.05;;
7985;SDS011;4038;42.612;23.066;2023-10-09T08:44:05;21.05;;;19.73;;
7985;SDS011;4038;42.612;23.066;2023-10-09T08:46:32;21.25;;;19.88;;
7985;SDS011;4038;42.612;23.066;2023-10-09T08:48:59;20.90;;;19.60;;
7985;SDS011;4038;42.612;23.066;2023-10-09T08:51:25;21.33;;;19.92;;
7985;SDS011;4038;42.612;23.066;2023-10-09T08:53:52;21.35;;;19.98;;
7985;SDS011;4038;42.612;23.066;2023-10-09T08:56:18;21.85;;;20.35;;
7985;SDS011;4038;42.612;23.066;2023-10-09T08:58:55;22.00;;;20.60;;
7985;SDS011;4038;42.612;23.066;2023-10-09T09:01:22;21.77;;;20.27;;
7985;SDS011;4038;42.612;23.066;2023-10-09T09:03:50;21.20;;;19.80;;
7985;SDS011;4038;42.612;23.066;2023-10-09T09:06:19;21.73;;;20.20;;
7985;SDS011;4038;42.612;23.066;2023-10-09T09:08:46;22.02;;;20.60;;
7985;SDS011;4038;42.612;23.066;2023-10-09T09:11:17;23.17;;;21.58;;
7985;SDS011;4038;42.612;23.066;2023-10-09T09:13:48;22.77;;;21.05;;
7985;SDS011;4038;42.612;23.066;2023-10-09T09:16:54;22.92;;;21.15;;
7985;SDS011;4038;42.612;23.066;2023-10-09T09:19:20;22.35;;;20.95;;
7985;SDS011;4038;42.612;23.066;2023-10-09T09:21:57;22.48;;;21.08;;
7985;SDS011;4038;42.612;23.066;2023-10-09T09:24:36;21.85;;;20.45;;
7985;SDS011;4038;42.612;23.066;2023-10-09T09:27:03;21.88;;;20.48;;
7985;SDS011;4038;42.612;23.066;2023-10-09T09:32:03;22.13;;;20.60;;
7985;SDS011;4038;42.612;23.066;2023-10-09T09:34:46;22.05;;;20.45;;
7985;SDS011;4038;42.612;23.066;2023-10-09T09:37:24;22.08;;;20.52;;
7985;SDS011;4038;42.612;23.066;2023-10-09T09:40:02;21.73;;;20.33;;
7985;SDS011;4038;42.612;23.066;2023-10-09T09:42:43;22.17;;;20.70;;
7985;SDS011;4038;42.612;23.066;2023-10-09T09:45:13;21.77;;;20.20;;
7985;SDS011;4038;42.612;23.066;2023-10-09T09:47:40;21.42;;;19.95;;
7985;SDS011;4038;42.612;23.066;2023-10-09T09:50:12;21.70;;;20.30;;
7985;SDS011;4038;42.612;23.066;2023-10-09T09:52:43;21.75;;;20.35;;
7985;SDS011;4038;42.612;23.066;2023-10-09T09:55:10;21.52;;;20.13;;
7985;SDS011;4038;42.612;23.066;2023-10-09T09:57:48;20.90;;;19.58;;
7985;SDS011;4038;42.612;23.066;2023-10-09T10:00:16;22.02;;;20.63;;
7985;SDS011;4038;42.612;23.066;2023-10-09T10:03:17;21.40;;;20.00;;
7985;SDS011;4038;42.612;23.066;2023-10-09T10:05:46;21.98;;;20.48;;
7985;SDS011;4038;42.612;23.066;2023-10-09T10:08:16;21.73;;;20.20;;
7985;SDS011;4038;42.612;23.066;2023-10-09T10:10:45;22.30;;;20.80;;
7985;SDS011;4038;42.612;23.066;2023-10-09T10:16:09;22.90;;;21.30;;
7985;SDS011;4038;42.612;23.066;2023-10-09T10:18:53;21.65;;;20.25;;
7985;SDS011;4038;42.612;23.066;2023-10-09T10:21:29;22.42;;;21.02;;
7985;SDS011;4038;42.612;23.066;2023-10-09T10:23:57;22.40;;;20.90;;
7985;SDS011;4038;42.612;23.066;2023-10-09T10:26:35;22.00;;;20.58;;
7985;SDS011;4038;42.612;23.066;2023-10-09T10:31:57;22.05;;;20.55;;
7985;SDS011;4038;42.612;23.066;2023-10-09T10:34:54;23.95;;;22.15;;
7985;SDS011;4038;42.612;23.066;2023-10-09T10:37:36;23.85;;;21.92;;
7985;SDS011;4038;42.612;23.066;2023-10-09T10:40:08;22.83;;;21.23;;
7985;SDS011;4038;42.612;23.066;2023-10-09T10:42:54;22.65;;;21.15;;
7985;SDS011;4038;42.612;23.066;2023-10-09T10:45:39;23.05;;;21.45;;
7985;SDS011;4038;42.612;23.066;2023-10-09T10:48:11;22.90;;;21.40;;
7985;SDS011;4038;42.612;23.066;2023-10-09T10:50:55;23.38;;;21.98;;
7985;SDS011;4038;42.612;23.066;2023-10-09T10:53:22;23.90;;;22.30;;
7985;SDS011;4038;42.612;23.066;2023-10-09T10:55:56;24.15;;;22.48;;
7985;SDS011;4038;42.612;23.066;2023-10-09T10:58:22;22.55;;;21.15;;
7985;SDS011;4038;42.612;23.066;2023-10-09T11:01:00;25.77;;;24.08;;
7985;SDS011;4038;42.612;23.066;2023-10-09T11:03:37;23.58;;;21.98;;
7985;SDS011;4038;42.612;23.066;2023-10-09T11:06:31;23.75;;;22.15;;
7985;SDS011;4038;42.612;23.066;2023-10-09T11:09:06;23.77;;;22.05;;
7985;SDS011;4038;42.612;23.066;2023-10-09T11:12:03;23.50;;;22.00;;
7985;SDS011;4038;42.612;23.066;2023-10-09T11:14:47;23.05;;;21.35;;
7985;SDS011;4038;42.612;23.066;2023-10-09T11:17:34;22.50;;;20.80;;
7985;SDS011;4038;42.612;23.066;2023-10-09T11:20:03;21.90;;;20.40;;
7985;SDS011;4038;42.612;23.066;2023-10-09T11:22:56;22.58;;;21.08;;
7985;SDS011;4038;42.612;23.066;2023-10-09T11:25:33;22.63;;;21.13;;
7985;SDS011;4038;42.612;23.066;2023-10-09T11:27:59;23.58;;;22.08;;
7985;SDS011;4038;42.612;23.066;2023-10-09T11:30:40;23.38;;;21.60;;
7985;SDS011;4038;42.612;23.066;2023-10-09T11:33:11;22.40;;;20.90;;
7985;SDS011;4038;42.612;23.066;2023-10-09T11:35:39;24.02;;;22.33;;
7985;SDS011;4038;42.612;23.066;2023-10-09T11:38:08;23.45;;;21.92;;
7985;SDS011;4038;42.612;23.066;2023-10-09T11:40:46;24.17;;;22.67;;
7985;SDS011;4038;42.612;23.066;2023-10-09T11:43:18;23.45;;;21.95;;
7985;SDS011;4038;42.612;23.066;2023-10-09T11:45:49;23.60;;;22.00;;
7985;SDS011;4038;42.612;23.066;2023-10-09T11:48:20;23.17;;;21.50;;
7985;SDS011;4038;42.612;23.066;2023-10-09T11:50:58;23.05;;;21.45;;
7985;SDS011;4038;42.612;23.066;2023-10-09T11:53:39;23.70;;;22.20;;
7985;SDS011;4038;42.612;23.066;2023-10-09T11:56:08;22.42;;;20.92;;
7985;SDS011;4038;42.612;23.066;2023-10-09T11:58:38;22.75;;;21.33;;
7985;SDS011;4038;42.612;23.066;2023-10-09T12:01:10;24.00;;;22.45;;
7985;SDS011;4038;42.612;23.066;2023-10-09T12:03:45;23.20;;;21.70;;
7985;SDS011;4038;42.612;23.066;2023-10-09T12:06:18;23.73;;;22.02;;
7985;SDS011;4038;42.612;23.066;2023-10-09T12:08:49;23.67;;;21.95;;
7985;SDS011;4038;42.612;23.066;2023-10-09T12:11:15;25.55;;;23.42;;
7985;SDS011;4038;42.612;23.066;2023-10-09T12:13:50;24.45;;;22.75;;
7985;SDS011;4038;42.612;23.066;2023-10-09T12:16:21;24.25;;;22.65;;
7985;SDS011;4038;42.612;23.066;2023-10-09T12:18:52;23.80;;;22.20;;
7985;SDS011;4038;42.612;23.066;2023-10-09T12:21:21;23.42;;;21.92;;
7985;SDS011;4038;42.612;23.066;2023-10-09T12:23:48;23.30;;;21.48;;
7985;SDS011;4038;42.612;23.066;2023-10-09T12:26:14;23.15;;;21.65;;
7985;SDS011;4038;42.612;23.066;2023-10-09T12:28:42;23.73;;;21.90;;
7985;SDS011;4038;42.612;23.066;2023-10-09T12:31:15;23.63;;;22.13;;
7985;SDS011;4038;42.612;23.066;2023-10-09T12:33:45;23.85;;;22.05;;
7985;SDS011;4038;42.612;23.066;2023-10-09T12:36:14;24.05;;;22.35;;
7985;SDS011;4038;42.612;23.066;2023-10-09T12:38:45;22.98;;;21.23;;
7985;SDS011;4038;42.612;23.066;2023-10-09T12:41:15;22.63;;;21.13;;
7985;SDS011;4038;42.612;23.066;2023-10-09T12:43:51;23.33;;;21.80;;
7985;SDS011;4038;42.612;23.066;2023-10-09T12:46:17;23.60;;;21.95;;
7985;SDS011;4038;42.612;23.066;2023-10-09T12:48:48;23.67;;;21.88;;
7985;SDS011;4038;42.612;23.066;2023-10-09T12:51:14;23.73;;;22.13;;
7985;SDS011;4038;42.612;23.066;2023-10-09T12:53:43;24.30;;;22.10;;
7985;SDS011;4038;42.612;23.066;2023-10-09T12:56:09;22.60;;;21.05;;
7985;SDS011;4038;42.612;23.066;2023-10-09T12:58:37;23.25;;;21.48;;
7985;SDS011;4038;42.612;23.066;2023-10-09T13:01:03;24.00;;;22.48;;
7985;SDS011;4038;42.612;23.066;2023-10-09T13:03:36;23.17;;;21.58;;
7985;SDS011;4038;42.612;23.066;2023-10-09T13:06:05;24.17;;;22.48;;
7985;SDS011;4038;42.612;23.066;2023-10-09T13:08:37;23.27;;;21.67;;
7985;SDS011;4038;42.612;23.066;2023-10-09T13:11:06;23.67;;;22.08;;
7985;SDS011;4038;42.612;23.066;2023-10-09T13:13:36;24.05;;;22.13;;
7985;SDS011;4038;42.612;23.066;2023-10-09T13:16:06;22.95;;;21.35;;
7985;SDS011;4038;42.612;23.066;2023-10-09T13:18:47;23.60;;;21.90;;
7985;SDS011;4038;42.612;23.066;2023-10-09T13:21:19;24.58;;;22.50;;
7985;SDS011;4038;42.612;23.066;2023-10-09T13:23:48;24.10;;;22.17;;
7985;SDS011;4038;42.612;23.066;2023-10-09T13:26:17;23.92;;;22.30;;
7985;SDS011;4038;42.612;23.066;2023-10-09T13:28:45;24.63;;;22.92;;
7985;SDS011;4038;42.612;23.066;2023-10-09T13:31:14;25.13;;;23.33;;
7985;SDS011;4038;42.612;23.066;2023-10-09T13:33:40;24.65;;;22.80;;
7985;SDS011;4038;42.612;23.066;2023-10-09T13:36:07;24.33;;;22.70;;
7985;SDS011;4038;42.612;23.066;2023-10-09T13:38:55;26.30;;;24.42;;
7985;SDS011;4038;42.612;23.066;2023-10-09T13:41:22;24.95;;;23.20;;
7985;SDS011;4038;42.612;23.066;2023-10-09T13:43:53;23.77;;;22.05;;
7985;SDS011;4038;42.612;23.066;2023-10-09T13:46:19;25.08;;;22.88;;
7985;SDS011;4038;42.612;23.066;2023-10-09T13:48:44;23.70;;;21.92;;
7985;SDS011;4038;42.612;23.066;2023-10-09T13:51:11;24.58;;;22.85;;
7985;SDS011;4038;42.612;23.066;2023-10-09T13:53:44;25.98;;;24.08;;
7985;SDS011;4038;42.612;23.066;2023-10-09T13:56:10;28.45;;;26.23;;
7985;SDS011;4038;42.612;23.066;2023-10-09T13:58:43;24.50;;;22.80;;
7985;SDS011;4038;42.612;23.066;2023-10-09T14:01:19;24.02;;;22.42;;
7985;SDS011;4038;42.612;23.066;2023-10-09T14:03:55;24.75;;;23.15;;
7985;SDS011;4038;42.612;23.066;2023-10-09T14:06:22;25.48;;;23.67;;
7985;SDS011;4038;42.612;23.066;2023-10-09T14:08:57;25.58;;;23.88;;
7985;SDS011;4038;42.612;23.066;2023-10-09T14:11:23;25.05;;;23.33;;
7985;SDS011;4038;42.612;23.066;2023-10-09T14:13:50;26.17;;;24.27;;
7985;SDS011;4038;42.612;23.066;2023-10-09T14:16:16;25.58;;;23.75;;
7985;SDS011;4038;42.612;23.066;2023-10-09T14:18:55;25.88;;;23.80;;
7985;SDS011;4038;42.612;23.066;2023-10-09T14:21:23;24.38;;;22.45;;
7985;SDS011;4038;42.612;23.066;2023-10-09T14:23:51;24.60;;;22.90;;
7985;SDS011;4038;42.612;23.066;2023-10-09T14:26:21;24.45;;;22.58;;
7985;SDS011;4038;42.612;23.066;2023-10-09T14:28:48;26.02;;;23.92;;
7985;SDS011;4038;42.612;23.066;2023-10-09T14:31:13;24.65;;;22.65;;
7985;SDS011;4038;42.612;23.066;2023-10-09T14:33:46;25.33;;;23.52;;
7985;SDS011;4038;42.612;23.066;2023-10-09T14:36:16;33.38;;;30.63;;
7985;SDS011;4038;42.612;23.066;2023-10-09T14:38:43;26.35;;;23.95;;
7985;SDS011;4038;42.612;23.066;2023-10-09T14:41:12;24.77;;;22.88;;
7985;SDS011;4038;42.612;23.066;2023-10-09T14:43:37;25.05;;;23.10;;
7985;SDS011;4038;42.612;23.066;2023-10-09T14:46:04;25.45;;;23.65;;
7985;SDS011;4038;42.612;23.066;2023-10-09T14:48:35;24.45;;;22.75;;
7985;SDS011;4038;42.612;23.066;2023-10-09T14:51:05;25.95;;;23.95;;
7985;SDS011;4038;42.612;23.066;2023-10-09T14:53:31;24.85;;;23.15;;
7985;SDS011;4038;42.612;23.066;2023-10-09T14:55:59;25.83;;;24.00;;
7985;SDS011;4038;42.612;23.066;2023-10-09T14:58:26;24.33;;;22.63;;
7985;SDS011;4038;42.612;23.066;2023-10-09T15:00:54;25.85;;;24.05;;
7985;SDS011;4038;42.612;23.066;2023-10-09T15:03:20;25.33;;;23.42;;
7985;SDS011;4038;42.612;23.066;2023-10-09T15:05:47;26.20;;;24.20;;
7985;SDS011;4038;42.612;23.066;2023-10-09T15:08:12;24.95;;;22.75;;
7985;SDS011;4038;42.612;23.066;2023-10-09T15:10:48;24.25;;;22.45;;
7985;SDS011;4038;42.612;23.066;2023-10-09T15:13:21;30.98;;;28.50;;
7985;SDS011;4038;42.612;23.066;2023-10-09T15:15:53;25.55;;;23.65;;
7985;SDS011;4038;42.612;23.066;2023-10-09T15:18:20;25.98;;;23.77;;
7985;SDS011;4038;42.612;23.066;2023-10-09T15:20:46;25.42;;;23.48;;